Time;durP1;ratioP1;P1;durP2;ratioP2;P2;SDS_P1;SDS_P2;PMS_P1;PMS_P2;Temp;Humidity;BMP_temperature;BMP_pressure;BME280_temperature;BME280_humidity;BME280_pressure;Samples;Min_cycle;Max_cycle;Signal;HPM_P1;HPM_P2
2023/06/29 00:01:05;;;;;;;;;;;;;;;25.18;100.00;99627.72;5073351;28;20376;-87
2023/06/29 00:03:34;;;;;;;;;;;;;;;25.16;100.00;99632.53;5074439;28;20276;-87
2023/06/29 00:05:59;;;;;;;;;;;;;;;25.10;100.00;99626.19;5073185;28;19917;-88
2023/06/29 00:08:26;;;;;;;;;;;;;;;25.14;100.00;99624.69;5073963;28;20278;-88
2023/06/29 00:10:52;;;;;;;;;;;;;;;25.14;100.00;99623.84;5069253;28;19916;-86
2023/06/29 00:13:18;;;;;;;;;;;;;;;25.10;100.00;99623.50;5073069;28;20015;-88
2023/06/29 00:15:43;;;;;;;;;;;;;;;25.03;100.00;99619.28;5072791;28;19916;-87
2023/06/29 00:18:09;;;;;;;;;;;;;;;25.07;100.00;99631.25;5072517;28;19969;-89
2023/06/29 00:20:35;;;;;;;;;;;;;;;25.03;100.00;99635.47;5072763;28;19923;-88
2023/06/29 00:23:01;;;;;;;;;;;;;;;25.02;100.00;99636.53;5077792;28;19916;-88
2023/06/29 00:25:26;;;;;;;;;;;;;;;24.97;100.00;99647.22;5084664;28;19990;-87
2023/06/29 00:27:51;;;;;;;;;;;;;;;24.95;100.00;99639.34;5073230;28;19969;-87
2023/06/29 00:30:17;;;;;;;;;;;;;;;24.97;100.00;99644.53;5071163;28;19931;-91
2023/06/29 00:32:43;;;;;;;;;;;;;;;24.99;100.00;99645.09;5072384;28;19916;-88
2023/06/29 00:35:10;;;;;;;;;;;;;;;24.92;100.00;99645.19;5071212;28;19916;-90
2023/06/29 00:37:35;;;;;;;;;;;;;;;24.91;100.00;99648.16;5046833;28;19916;-88
2023/06/29 00:40:02;;;;;;;;;;;;;;;24.93;100.00;99646.03;5071051;28;19920;-86
2023/06/29 00:42:28;;;;;;;;;;;;;;;24.93;100.00;99641.44;5071727;28;19948;-88
2023/06/29 00:44:53;;;;;;;;;;;;;;;24.94;100.00;99648.50;5072114;28;20388;-88
2023/06/29 00:47:19;;;;;;;;;;;;;;;24.92;100.00;99647.09;5070931;28;20275;-90
2023/06/29 00:49:45;;;;;;;;;;;;;;;24.92;100.00;99649.81;5071035;28;20269;-90
2023/06/29 00:52:10;;;;;;;;;;;;;;;24.93;100.00;99651.41;5070791;28;19962;-89
2023/06/29 00:54:36;;;;;;;;;;;;;;;24.90;100.00;99655.44;5072299;28;20276;-89
2023/06/29 00:57:01;;;;;;;;;;;;;;;24.87;100.00;99653.97;5070542;28;19916;-90
2023/06/29 00:59:27;;;;;;;;;;;;;;;24.86;100.00;99655.03;5066776;28;19927;-90
2023/06/29 01:01:52;;;;;;;;;;;;;;;24.86;100.00;99657.72;5069751;28;19924;-90
2023/06/29 01:04:22;;;;;;;;;;;;;;;24.87;100.00;99659.38;5068186;28;19927;-88
2023/06/29 01:06:57;;;;;;;;;;;;;;;24.81;100.00;99664.88;5054138;28;19931;-88
2023/06/29 01:09:23;;;;;;;;;;;;;;;24.79;100.00;99662.44;5067067;28;19962;-87
2023/06/29 01:11:49;;;;;;;;;;;;;;;24.81;100.00;99662.16;5071287;28;19924;-88
2023/06/29 01:14:15;;;;;;;;;;;;;;;24.78;100.00;99655.38;5071896;28;19961;-87
2023/06/29 01:16:42;;;;;;;;;;;;;;;24.73;100.00;99660.66;5071351;28;20011;-87
2023/06/29 01:19:09;;;;;;;;;;;;;;;24.71;100.00;99668.16;5070839;28;20014;-88
2023/06/29 01:21:41;;;;;;;;;;;;;;;24.72;100.00;99659.00;5071976;28;20287;-91
2023/06/29 01:24:08;;;;;;;;;;;;;;;24.71;100.00;99657.34;5054919;28;19916;-90
2023/06/29 01:26:33;;;;;;;;;;;;;;;24.69;100.00;99651.34;5085344;28;19924;-89
2023/06/29 01:28:59;;;;;;;;;;;;;;;24.71;100.00;99654.66;5056880;28;19916;-91
2023/06/29 01:31:26;;;;;;;;;;;;;;;24.70;100.00;99663.81;5071795;28;19920;-91
2023/06/29 01:33:53;;;;;;;;;;;;;;;24.69;100.00;99651.34;5071850;28;19922;-88
2023/06/29 01:36:19;;;;;;;;;;;;;;;24.66;100.00;99651.00;5070305;28;19999;-88
2023/06/29 01:39:00;;;;;;;;;;;;;;;24.63;100.00;99649.59;5072510;28;20328;-88
2023/06/29 01:41:26;;;;;;;;;;;;;;;24.57;100.00;99655.06;5068748;28;20387;-89
2023/06/29 01:43:52;;;;;;;;;;;;;;;24.52;100.00;99647.69;5070515;28;19917;-88
2023/06/29 01:46:19;;;;;;;;;;;;;;;24.50;100.00;99644.41;5070193;28;20392;-89
2023/06/29 01:48:45;;;;;;;;;;;;;;;24.51;100.00;99645.22;5053691;28;19959;-89
2023/06/29 01:51:12;;;;;;;;;;;;;;;24.46;100.00;99646.72;5069517;28;19916;-88
2023/06/29 01:53:38;;;;;;;;;;;;;;;24.42;100.00;99645.56;5071301;28;19943;-89
2023/06/29 01:56:03;;;;;;;;;;;;;;;24.37;100.00;99652.69;5071134;28;19917;-88
2023/06/29 01:58:29;;;;;;;;;;;;;;;24.36;100.00;99656.44;5070061;28;19920;-87
2023/06/29 02:00:54;;;;;;;;;;;;;;;24.30;100.00;99650.09;5052787;28;19923;-86
2023/06/29 02:03:20;;;;;;;;;;;;;;;24.26;100.00;99662.41;5070956;28;20334;-86
2023/06/29 02:05:45;;;;;;;;;;;;;;;24.24;100.00;99658.28;5069827;28;19961;-88
2023/06/29 02:08:10;;;;;;;;;;;;;;;24.23;100.00;99649.34;5071067;28;20344;-88
2023/06/29 02:10:36;;;;;;;;;;;;;;;24.21;100.00;99647.97;5069968;28;20282;-85
2023/06/29 02:13:01;;;;;;;;;;;;;;;24.16;100.00;99661.25;5070551;28;19916;-85
2023/06/29 02:15:26;;;;;;;;;;;;;;;24.16;100.00;99661.25;5068472;28;19916;-85
2023/06/29 02:17:52;;;;;;;;;;;;;;;24.18;100.00;99659.16;5053064;28;20364;-89
2023/06/29 02:20:17;;;;;;;;;;;;;;;24.16;100.00;99662.06;5069272;28;19924;-89
2023/06/29 02:22:43;;;;;;;;;;;;;;;24.15;100.00;99656.94;5069962;28;19965;-88
2023/06/29 02:25:10;;;;;;;;;;;;;;;24.09;100.00;99656.75;5083513;28;19985;-87
2023/06/29 02:27:35;;;;;;;;;;;;;;;24.08;100.00;99660.53;5078231;28;19916;-87
2023/06/29 02:30:01;;;;;;;;;;;;;;;24.04;100.00;99659.31;5077400;28;19970;-88
2023/06/29 02:32:26;;;;;;;;;;;;;;;24.01;100.00;99657.09;5071471;28;19938;-87
2023/06/29 02:34:52;;;;;;;;;;;;;;;24.00;100.00;99660.00;5070368;28;20029;-88
2023/06/29 02:37:17;;;;;;;;;;;;;;;23.97;100.00;99658.59;5069465;28;19920;-86
2023/06/29 02:39:43;;;;;;;;;;;;;;;23.96;100.00;99662.34;5069575;28;20006;-86
2023/06/29 02:42:08;;;;;;;;;;;;;;;23.97;100.00;99664.00;5069311;28;19920;-85
2023/06/29 02:44:34;;;;;;;;;;;;;;;23.93;100.00;99649.31;5069428;28;19916;-85
2023/06/29 02:46:59;;;;;;;;;;;;;;;23.88;100.00;99665.34;5069704;28;19916;-89
2023/06/29 02:49:25;;;;;;;;;;;;;;;23.79;100.00;99660.50;5070962;28;19977;-89
2023/06/29 02:51:50;;;;;;;;;;;;;;;23.73;100.00;99658.69;5052385;28;19917;-89
2023/06/29 02:54:16;;;;;;;;;;;;;;;23.73;100.00;99662.22;5052488;28;19920;-90
2023/06/29 02:56:42;;;;;;;;;;;;;;;23.71;100.00;99660.78;5069276;28;20399;-90
2023/06/29 02:59:08;;;;;;;;;;;;;;;23.67;100.00;99660.44;5068863;28;19920;-86
2023/06/29 03:01:35;;;;;;;;;;;;;;;23.68;100.00;99662.03;5070398;28;19917;-89
2023/06/29 03:04:00;;;;;;;;;;;;;;;23.57;100.00;99668.19;5052182;28;19939;-86
2023/06/29 03:06:25;;;;;;;;;;;;;;;23.62;100.00;99671.06;5069327;28;20689;-87
2023/06/29 03:08:52;;;;;;;;;;;;;;;23.59;100.00;99671.50;5069979;28;19916;-89
2023/06/29 03:11:17;;;;;;;;;;;;;;;23.53;100.00;99656.22;5070019;28;19963;-86
2023/06/29 03:13:43;;;;;;;;;;;;;;;23.58;100.00;99669.84;5070348;28;20038;-87
2023/06/29 03:16:09;;;;;;;;;;;;;;;23.60;100.00;99667.75;5069729;28;19999;-88
2023/06/29 03:18:34;;;;;;;;;;;;;;;23.53;100.00;99667.00;5070877;28;19916;-88
2023/06/29 03:21:01;;;;;;;;;;;;;;;23.53;100.00;99673.22;5070393;28;19916;-87
2023/06/29 03:23:27;;;;;;;;;;;;;;;23.52;100.00;99670.72;5070180;28;19916;-88
2023/06/29 03:25:52;;;;;;;;;;;;;;;23.47;100.00;99673.28;5068820;28;19917;-87
2023/06/29 03:28:18;;;;;;;;;;;;;;;23.45;100.00;99675.31;5073041;28;19924;-87
2023/06/29 03:30:44;;;;;;;;;;;;;;;23.47;100.00;99678.66;5077113;28;20395;-87
2023/06/29 03:33:09;;;;;;;;;;;;;;;23.43;100.00;99690.91;5076510;28;19923;-88
2023/06/29 03:35:34;;;;;;;;;;;;;;;23.18;100.00;99697.13;5073983;28;19969;-87
2023/06/29 03:38:00;;;;;;;;;;;;;;;23.25;100.00;99692.53;5073816;28;19997;-87
2023/06/29 03:40:25;;;;;;;;;;;;;;;23.24;100.00;99703.50;5071987;28;19916;-86
2023/06/29 03:42:50;;;;;;;;;;;;;;;23.27;100.00;99700.34;5073473;28;19916;-85
2023/06/29 03:45:16;;;;;;;;;;;;;;;23.26;100.00;99701.44;5070607;28;19970;-86
2023/06/29 03:47:41;;;;;;;;;;;;;;;23.28;100.00;99712.78;5072390;28;20363;-86
2023/06/29 03:50:06;;;;;;;;;;;;;;;23.28;100.00;99702.00;5070769;28;20348;-86
2023/06/29 03:52:32;;;;;;;;;;;;;;;23.32;100.00;99700.53;5072303;28;19924;-89
2023/06/29 03:54:57;;;;;;;;;;;;;;;23.35;100.00;99699.25;5072640;28;20326;-87
2023/06/29 03:57:22;;;;;;;;;;;;;;;23.35;100.00;99701.94;5068706;28;19939;-84
2023/06/29 03:59:48;;;;;;;;;;;;;;;23.36;100.00;99709.00;5072653;28;20026;-87
2023/06/29 04:02:13;;;;;;;;;;;;;;;23.35;100.00;99713.56;5072906;28;19942;-86
2023/06/29 04:04:38;;;;;;;;;;;;;;;23.35;100.00;99715.41;5073083;28;20283;-86
2023/06/29 04:07:04;;;;;;;;;;;;;;;23.35;100.00;99718.09;5072800;28;20019;-87
2023/06/29 04:09:29;;;;;;;;;;;;;;;23.32;100.00;99716.69;5073263;28;20427;-86
2023/06/29 04:11:55;;;;;;;;;;;;;;;23.34;100.00;99721.84;5072790;28;19916;-88
2023/06/29 04:14:20;;;;;;;;;;;;;;;23.33;100.00;99720.22;5072864;28;19965;-87
2023/06/29 04:16:45;;;;;;;;;;;;;;;23.25;100.00;99721.31;5073351;28;19923;-87
2023/06/29 04:19:10;;;;;;;;;;;;;;;23.31;100.00;99717.75;5071415;28;20304;-86
2023/06/29 04:21:36;;;;;;;;;;;;;;;23.32;100.00;99723.94;5073215;28;20368;-85
2023/06/29 04:24:01;;;;;;;;;;;;;;;23.35;100.00;99728.88;5071618;28;20352;-87
2023/06/29 04:26:30;;;;;;;;;;;;;;;23.33;100.00;99722.91;5072723;28;19917;-87
2023/06/29 04:29:02;;;;;;;;;;;;;;;23.34;100.00;99725.34;5069008;28;19916;-87
2023/06/29 04:31:30;;;;;;;;;;;;;;;23.23;100.00;99726.91;5072409;28;19924;-87
2023/06/29 04:33:57;;;;;;;;;;;;;;;23.31;100.00;99727.69;5074947;28;19927;-87
2023/06/29 04:36:23;;;;;;;;;;;;;;;23.26;100.00;99728.34;5069605;28;19916;-87
2023/06/29 04:38:50;;;;;;;;;;;;;;;23.33;100.00;99731.00;5070907;28;19920;-86
2023/06/29 04:41:16;;;;;;;;;;;;;;;23.27;100.00;99728.09;5071463;28;20372;-83
2023/06/29 04:43:41;;;;;;;;;;;;;;;23.30;100.00;99734.94;5072558;28;19919;-84
2023/06/29 04:46:07;;;;;;;;;;;;;;;23.25;100.00;99729.38;5072458;28;19916;-83
2023/06/29 04:48:38;;;;;;;;;;;;;;;23.25;100.00;99740.16;5072628;28;19920;-84
2023/06/29 04:51:06;;;;;;;;;;;;;;;23.22;100.00;99730.63;5072559;28;19918;-85
2023/06/29 04:53:32;;;;;;;;;;;;;;;23.18;100.00;99734.00;5072735;28;19951;-84
2023/06/29 04:55:58;;;;;;;;;;;;;;;23.18;100.00;99739.38;5072436;28;19912;-86
2023/06/29 04:58:23;;;;;;;;;;;;;;;23.23;100.00;99743.06;5071806;28;19942;-83
2023/06/29 05:00:49;;;;;;;;;;;;;;;23.26;100.00;99742.63;5047649;28;19981;-85
2023/06/29 05:03:14;;;;;;;;;;;;;;;23.23;100.00;99739.53;5071906;28;20269;-83
2023/06/29 05:05:39;;;;;;;;;;;;;;;23.20;100.00;99745.38;5071810;28;19962;-85
2023/06/29 05:08:06;;;;;;;;;;;;;;;23.21;100.00;99739.75;5070180;28;19924;-85
2023/06/29 05:10:31;;;;;;;;;;;;;;;23.27;100.00;99744.25;5066614;28;19912;-85
2023/06/29 05:12:56;;;;;;;;;;;;;;;23.27;100.00;99748.81;5066132;28;19917;-82
2023/06/29 05:15:22;;;;;;;;;;;;;;;23.24;100.00;99744.72;5072113;28;20292;-81
2023/06/29 05:17:47;;;;;;;;;;;;;;;23.31;100.00;99741.16;5071282;28;20280;-77
2023/06/29 05:20:13;;;;;;;;;;;;;;;23.35;100.00;99742.34;5070957;28;20003;-77
2023/06/29 05:22:39;;;;;;;;;;;;;;;23.40;100.00;99737.13;5065973;28;19955;-77
2023/06/29 05:25:04;;;;;;;;;;;;;;;23.44;100.00;99743.72;5070812;28;19959;-75
2023/06/29 05:27:29;;;;;;;;;;;;;;;23.46;100.00;99757.78;5071390;28;19947;-76
2023/06/29 05:29:55;;;;;;;;;;;;;;;23.50;100.00;99756.34;5067930;28;19921;-77
2023/06/29 05:32:20;;;;;;;;;;;;;;;23.54;100.00;99755.66;5066188;28;20443;-78
2023/06/29 05:34:45;;;;;;;;;;;;;;;23.57;100.00;99765.16;5067879;28;20368;-76
2023/06/29 05:37:11;;;;;;;;;;;;;;;23.55;100.00;99762.72;5070483;28;19955;-79
2023/06/29 05:39:36;;;;;;;;;;;;;;;23.57;100.00;99773.25;5067513;28;19916;-78
2023/06/29 05:42:01;;;;;;;;;;;;;;;23.56;100.00;99774.31;5068785;28;19922;-77
2023/06/29 05:44:27;;;;;;;;;;;;;;;23.45;100.00;99772.28;5071003;28;19963;-74
2023/06/29 05:46:52;;;;;;;;;;;;;;;23.50;100.00;99777.88;5069691;28;20437;-75
2023/06/29 05:49:17;;;;;;;;;;;;;;;23.47;100.00;99776.44;5070289;28;19924;-76
2023/06/29 05:51:42;;;;;;;;;;;;;;;23.52;100.00;99782.00;5069657;28;20094;-75
2023/06/29 05:54:08;;;;;;;;;;;;;;;23.58;100.00;99777.59;5070532;28;19950;-77
2023/06/29 05:56:33;;;;;;;;;;;;;;;23.62;100.00;99785.00;5068779;28;19924;-74
2023/06/29 05:58:59;;;;;;;;;;;;;;;23.68;100.00;99776.03;5070026;28;20007;-76
2023/06/29 06:01:24;;;;;;;;;;;;;;;23.76;100.00;99779.47;5069815;28;19916;-76
2023/06/29 06:03:49;;;;;;;;;;;;;;;23.74;100.00;99779.69;5070219;28;19951;-77
2023/06/29 06:06:15;;;;;;;;;;;;;;;23.77;100.00;99781.97;5070972;28;19917;-77
2023/06/29 06:08:40;;;;;;;;;;;;;;;23.83;100.00;99778.38;5069294;28;19917;-76
2023/06/29 06:11:06;;;;;;;;;;;;;;;23.90;100.00;99773.75;5069712;28;19917;-81
2023/06/29 06:13:31;;;;;;;;;;;;;;;23.88;100.00;99772.31;5067170;28;20269;-82
2023/06/29 06:15:57;;;;;;;;;;;;;;;23.91;100.00;99778.09;5067043;28;19940;-85
2023/06/29 06:18:22;;;;;;;;;;;;;;;23.91;100.00;99779.97;5066771;28;19916;-85
2023/06/29 06:20:48;;;;;;;;;;;;;;;23.94;100.00;99783.03;5070886;28;20003;-84
2023/06/29 06:23:13;;;;;;;;;;;;;;;23.93;100.00;99785.94;5071826;28;20034;-88
2023/06/29 06:25:38;;;;;;;;;;;;;;;23.89;99.63;99788.28;5069971;28;19928;-88
2023/06/29 06:28:04;;;;;;;;;;;;;;;23.92;100.00;99795.91;5070986;28;19922;-88
2023/06/29 06:30:29;;;;;;;;;;;;;;;23.95;100.00;99789.25;5071506;28;20377;-88
2023/06/29 06:32:54;;;;;;;;;;;;;;;23.90;98.81;99791.78;5069402;28;19917;-86
2023/06/29 06:35:20;;;;;;;;;;;;;;;23.78;98.66;99783.63;5071160;28;19967;-88
2023/06/29 06:37:45;;;;;;;;;;;;;;;23.83;98.62;99783.78;5071530;28;19952;-88
2023/06/29 06:40:11;;;;;;;;;;;;;;;23.92;98.82;99795.91;5069495;28;19916;-87
2023/06/29 06:42:37;;;;;;;;;;;;;;;23.99;98.87;99791.25;5070051;28;20011;-86
2023/06/29 06:45:06;;;;;;;;;;;;;;;24.02;98.15;99790.84;5068968;28;20333;-87
2023/06/29 06:47:32;;;;;;;;;;;;;;;24.11;98.37;99793.22;5070498;28;20326;-89
2023/06/29 06:49:57;;;;;;;;;;;;;;;24.19;98.46;99790.25;5068918;28;19916;-88
2023/06/29 06:52:23;;;;;;;;;;;;;;;24.25;98.11;99794.75;5071038;28;19954;-88
2023/06/29 06:54:48;;;;;;;;;;;;;;;24.28;97.70;99788.88;5071527;28;19921;-87
2023/06/29 06:57:13;;;;;;;;;;;;;;;24.25;97.03;99794.75;5069870;28;19920;-88
2023/06/29 06:59:39;;;;;;;;;;;;;;;24.23;97.42;99796.84;5068546;28;20050;-87
2023/06/29 07:02:05;;;;;;;;;;;;;;;24.15;97.67;99783.66;5071593;28;19916;-89
2023/06/29 07:04:30;;;;;;;;;;;;;;;24.11;97.08;99788.66;5074538;28;19943;-88
2023/06/29 07:06:56;;;;;;;;;;;;;;;24.05;96.95;99795.75;5073654;28;20372;-89
2023/06/29 07:09:21;;;;;;;;;;;;;;;24.03;97.73;99797.84;5082318;28;19917;-89
2023/06/29 07:11:46;;;;;;;;;;;;;;;23.96;98.13;99794.41;5085279;28;19916;-89
2023/06/29 07:14:12;;;;;;;;;;;;;;;23.95;97.57;99787.38;5073849;28;19985;-88
2023/06/29 07:16:37;;;;;;;;;;;;;;;23.90;97.92;99798.00;5068301;28;19916;-89
2023/06/29 07:19:11;;;;;;;;;;;;;;;23.87;98.04;99790.34;5073290;28;19951;-90
2023/06/29 07:21:37;;;;;;;;;;;;;;;23.88;97.87;99789.31;5071730;28;20280;-88
2023/06/29 07:24:02;;;;;;;;;;;;;;;23.80;97.89;99800.38;5072123;28;19931;-87
2023/06/29 07:26:29;;;;;;;;;;;;;;;23.84;98.23;99793.50;5072145;28;20006;-92
2023/06/29 07:28:55;;;;;;;;;;;;;;;23.81;98.00;99804.72;5069746;28;19955;-86
2023/06/29 07:31:26;;;;;;;;;;;;;;;23.89;98.36;99796.34;5075337;28;20450;-84
2023/06/29 07:33:53;;;;;;;;;;;;;;;23.78;97.82;99804.34;5074602;28;20005;-82
2023/06/29 07:36:19;;;;;;;;;;;;;;;23.72;98.26;99803.38;5080555;28;19939;-83
2023/06/29 07:38:44;;;;;;;;;;;;;;;23.59;98.34;99800.78;5073494;28;19917;-85
2023/06/29 07:41:09;;;;;;;;;;;;;;;23.69;98.74;99801.09;5072742;28;19938;-83
2023/06/29 07:43:35;;;;;;;;;;;;;;;23.73;98.75;99796.94;5071973;28;20273;-82
2023/06/29 07:46:01;;;;;;;;;;;;;;;23.77;98.77;99798.13;5071982;28;19939;-79
2023/06/29 07:48:27;;;;;;;;;;;;;;;23.83;98.46;99802.63;5070796;28;19918;-79
2023/06/29 07:50:53;;;;;;;;;;;;;;;23.86;98.40;99796.78;5072372;28;19991;-81
2023/06/29 07:53:18;;;;;;;;;;;;;;;23.90;98.29;99798.00;5072369;28;19963;-80
2023/06/29 07:55:44;;;;;;;;;;;;;;;23.91;98.37;99807.75;5072524;28;19912;-80
2023/06/29 07:58:09;;;;;;;;;;;;;;;23.95;98.29;99808.94;5071821;28;20293;-82
2023/06/29 08:00:35;;;;;;;;;;;;;;;23.90;98.36;99813.34;5072729;28;19920;-86
2023/06/29 08:03:00;;;;;;;;;;;;;;;23.97;98.03;99814.94;5072356;28;19916;-85
2023/06/29 08:05:25;;;;;;;;;;;;;;;24.00;97.82;99814.47;5072508;28;19923;-85
2023/06/29 08:07:50;;;;;;;;;;;;;;;23.95;98.27;99814.34;5068838;28;19916;-81
2023/06/29 08:10:16;;;;;;;;;;;;;;;23.98;98.43;99808.47;5070882;28;19916;-89
2023/06/29 08:12:41;;;;;;;;;;;;;;;24.00;97.97;99814.47;5071491;28;19916;-87
2023/06/29 08:15:07;;;;;;;;;;;;;;;23.99;98.22;99812.81;5074811;28;19923;-85
2023/06/29 08:17:32;;;;;;;;;;;;;;;23.98;98.21;99819.25;5072255;28;19965;-86
2023/06/29 08:19:57;;;;;;;;;;;;;;;23.97;98.28;99825.72;5072286;28;19920;-84
2023/06/29 08:22:23;;;;;;;;;;;;;;;24.02;98.53;99825.88;5070675;28;20383;-81
2023/06/29 08:24:51;;;;;;;;;;;;;;;24.05;98.81;99828.09;5073461;28;19924;-80
2023/06/29 08:27:16;;;;;;;;;;;;;;;24.06;98.48;99829.75;5073347;28;19923;-82
2023/06/29 08:29:50;;;;;;;;;;;;;;;24.05;98.37;99833.50;5072918;28;20006;-91
2023/06/29 08:32:15;;;;;;;;;;;;;;;24.05;98.67;99830.81;5054620;28;19920;-84
2023/06/29 08:34:40;;;;;;;;;;;;;;;24.16;98.48;99833.78;5071740;28;20019;-84
2023/06/29 08:37:06;;;;;;;;;;;;;;;24.21;97.45;99836.72;5071782;28;19923;-86
2023/06/29 08:39:31;;;;;;;;;;;;;;;24.24;96.89;99830.84;5072257;28;20299;-85
2023/06/29 08:41:56;;;;;;;;;;;;;;;24.20;96.58;99829.66;5072397;28;19920;-85
2023/06/29 08:44:22;;;;;;;;;;;;;;;24.26;96.59;99834.97;5068410;28;19923;-84
2023/06/29 08:46:48;;;;;;;;;;;;;;;24.20;96.39;99830.47;5071212;28;20300;-80
2023/06/29 08:49:14;;;;;;;;;;;;;;;24.17;96.78;99835.44;5071513;28;19974;-83
2023/06/29 08:51:42;;;;;;;;;;;;;;;24.11;96.17;99829.09;5066339;28;19916;-81
2023/06/29 08:54:08;;;;;;;;;;;;;;;24.06;96.21;99837.84;5070388;28;20372;-83
2023/06/29 08:56:33;;;;;;;;;;;;;;;24.10;96.31;99838.22;5071191;28;19943;-82
2023/06/29 08:58:59;;;;;;;;;;;;;;;24.21;96.55;99836.72;5070792;28;19920;-82
2023/06/29 09:01:24;;;;;;;;;;;;;;;24.30;96.29;99840.75;5066341;28;19951;-82
2023/06/29 09:03:50;;;;;;;;;;;;;;;24.39;96.40;99840.19;5072043;28;19920;-82
2023/06/29 09:06:16;;;;;;;;;;;;;;;24.40;95.57;99835.63;5071643;28;19923;-83
2023/06/29 09:08:41;;;;;;;;;;;;;;;24.49;95.42;99850.47;5070270;28;20023;-81
2023/06/29 09:11:07;;;;;;;;;;;;;;;24.50;94.30;99841.34;5071359;28;19916;-81
2023/06/29 09:13:33;;;;;;;;;;;;;;;24.53;93.83;99845.44;5071747;28;19921;-81
2023/06/29 09:16:00;;;;;;;;;;;;;;;24.56;93.22;99850.41;5071550;28;19924;-83
2023/06/29 09:18:27;;;;;;;;;;;;;;;24.64;93.30;99844.69;5067805;28;19916;-83
2023/06/29 09:20:56;;;;;;;;;;;;;;;24.66;92.93;99856.91;5071376;28;19916;-83
2023/06/29 09:23:25;;;;;;;;;;;;;;;24.73;92.47;99852.25;5071557;28;20669;-82
2023/06/29 09:25:53;;;;;;;;;;;;;;;24.73;91.88;99844.16;5072954;28;19916;-82
2023/06/29 09:28:18;;;;;;;;;;;;;;;24.72;91.77;99845.22;5070594;28;20376;-83
2023/06/29 09:30:43;;;;;;;;;;;;;;;24.81;91.76;99845.69;5071722;28;19916;-80
2023/06/29 09:33:10;;;;;;;;;;;;;;;24.84;91.97;99840.69;5071357;28;19916;-81
2023/06/29 09:35:45;;;;;;;;;;;;;;;24.86;91.70;99841.25;5072026;28;19916;-83
2023/06/29 09:38:11;;;;;;;;;;;;;;;24.78;92.35;99844.28;5072083;28;19916;-81
2023/06/29 09:40:49;;;;;;;;;;;;;;;24.90;92.13;99840.84;5072517;28;19938;-84
2023/06/29 09:43:15;;;;;;;;;;;;;;;24.87;92.00;99840.22;5072452;28;19962;-82
2023/06/29 09:45:41;;;;;;;;;;;;;;;24.98;91.32;99837.81;5072482;28;20380;-83
2023/06/29 09:48:10;;;;;;;;;;;;;;;25.04;90.90;99834.19;5082672;28;19904;-80
2023/06/29 09:50:36;;;;;;;;;;;;;;;25.12;90.67;99833.88;5090495;28;19923;-81
2023/06/29 09:53:06;;;;;;;;;;;;;;;25.19;90.14;99835.44;5091188;28;19916;-80
2023/06/29 09:55:32;;;;;;;;;;;;;;;25.11;90.41;99837.63;5089550;28;19917;-77
2023/06/29 09:58:00;;;;;;;;;;;;;;;25.05;91.02;99833.97;5088395;28;19916;-82
2023/06/29 10:00:27;;;;;;;;;;;;;;;25.21;90.55;99837.91;5078835;28;19916;-78
2023/06/29 10:02:53;;;;;;;;;;;;;;;25.25;90.20;99834.50;5070697;28;19917;-79
2023/06/29 10:05:20;;;;;;;;;;;;;;;25.31;89.52;99834.63;5069168;28;19925;-80
2023/06/29 10:07:46;;;;;;;;;;;;;;;25.35;88.70;99825.84;5070576;28;19920;-80
2023/06/29 10:10:14;;;;;;;;;;;;;;;25.35;89.10;99827.72;5069883;28;19923;-80
2023/06/29 10:12:40;;;;;;;;;;;;;;;25.44;89.14;99832.56;5069095;28;20493;-79
2023/06/29 10:15:09;;;;;;;;;;;;;;;25.50;88.40;99837.03;5069681;28;19920;-79
2023/06/29 10:17:41;;;;;;;;;;;;;;;25.55;88.34;99825.53;5069120;28;19939;-80
2023/06/29 10:20:08;;;;;;;;;;;;;;;25.56;88.21;99836.13;5069985;28;19922;-81
2023/06/29 10:22:34;;;;;;;;;;;;;;;25.60;88.24;99825.66;5070128;28;19924;-81
2023/06/29 10:25:03;;;;;;;;;;;;;;;25.67;88.05;99821.81;4368850;28;10000800;-80
2023/06/29 10:27:29;;;;;;;;;;;;;;;25.75;87.83;99822.50;5067302;28;20384;-81
2023/06/29 10:29:55;;;;;;;;;;;;;;;25.77;86.95;99828.50;5063454;28;19963;-79
2023/06/29 10:32:33;;;;;;;;;;;;;;;25.72;86.97;99817.56;4361165;28;10000783;-79
2023/06/29 10:34:59;;;;;;;;;;;;;;;25.78;87.16;99816.63;5066972;28;20264;-79
2023/06/29 10:37:32;;;;;;;;;;;;;;;25.83;87.03;99830.25;5072395;28;20010;-80
2023/06/29 10:39:58;;;;;;;;;;;;;;;25.88;86.40;99816.84;5070431;28;19917;-81
2023/06/29 10:42:23;;;;;;;;;;;;;;;25.88;86.43;99812.28;5074295;28;19916;-84
2023/06/29 10:44:48;;;;;;;;;;;;;;;26.02;86.51;99812.84;5074014;28;19924;-82
2023/06/29 10:47:27;;;;;;;;;;;;;;;26.04;85.41;99813.44;5071966;28;19920;-85
2023/06/29 10:50:14;;;;;;;;;;;;;;;26.15;84.87;99817.19;5071670;28;19977;-82
2023/06/29 10:52:42;;;;;;;;;;;;;;;26.13;83.83;99816.59;5069880;28;19964;-81
2023/06/29 10:55:18;;;;;;;;;;;;;;;26.08;83.43;99811.91;5074572;28;19920;-77
2023/06/29 10:57:47;;;;;;;;;;;;;;;26.15;83.92;99812.63;5071193;28;19917;-78
2023/06/29 11:00:13;;;;;;;;;;;;;;;26.02;83.17;99805.56;5070482;28;19967;-80
2023/06/29 11:02:40;;;;;;;;;;;;;;;26.06;83.67;99800.50;5071795;28;19920;-79
2023/06/29 11:05:06;;;;;;;;;;;;;;;26.08;83.05;99795.69;5072821;28;20372;-79
2023/06/29 11:07:32;;;;;;;;;;;;;;;26.15;83.42;99796.38;5070090;28;19920;-79
2023/06/29 11:10:01;;;;;;;;;;;;;;;26.30;83.47;99794.03;5069747;28;20669;-81
2023/06/29 11:12:26;;;;;;;;;;;;;;;26.42;81.37;99796.69;5071484;28;19947;-80
2023/06/29 11:14:52;;;;;;;;;;;;;;;26.43;81.31;99796.47;5073032;28;19959;-78
2023/06/29 11:17:17;;;;;;;;;;;;;;;26.27;80.46;99797.19;5072950;28;20423;-78
2023/06/29 11:19:45;;;;;;;;;;;;;;;26.06;81.47;99800.50;5073725;28;19923;-78
2023/06/29 11:22:11;;;;;;;;;;;;;;;25.80;81.40;99792.91;5073573;28;19916;-80
2023/06/29 11:24:36;;;;;;;;;;;;;;;25.80;82.46;99798.31;5073682;28;19916;-76
2023/06/29 11:27:02;;;;;;;;;;;;;;;25.93;81.39;99790.75;5073972;28;20395;-78
2023/06/29 11:29:28;;;;;;;;;;;;;;;26.02;81.54;99791.22;5073689;28;20002;-77
2023/06/29 11:31:53;;;;;;;;;;;;;;;25.96;80.91;99786.75;5073052;28;19916;-80
2023/06/29 11:34:18;;;;;;;;;;;;;;;26.02;79.81;99799.34;5073281;28;19931;-79
2023/06/29 11:36:44;;;;;;;;;;;;;;;26.11;78.94;99789.78;5072042;28;19923;-79
2023/06/29 11:39:11;;;;;;;;;;;;;;;26.10;78.10;99796.25;5072706;28;19916;-80
2023/06/29 11:41:37;;;;;;;;;;;;;;;26.13;77.34;99790.38;5073365;28;19923;-81
2023/06/29 11:44:04;;;;;;;;;;;;;;;26.26;76.42;99782.03;5073156;28;19916;-77
2023/06/29 11:46:33;;;;;;;;;;;;;;;26.34;76.05;99786.22;5071983;28;19920;-81
2023/06/29 11:48:59;;;;;;;;;;;;;;;26.41;74.52;99787.75;5072290;28;19924;-78
2023/06/29 11:51:25;;;;;;;;;;;;;;;26.49;73.93;99781.16;5072590;28;20194;-81
2023/06/29 11:53:52;;;;;;;;;;;;;;;26.45;72.83;99786.19;5074091;28;20439;-77
2023/06/29 11:56:33;;;;;;;;;;;;;;;26.41;73.53;99774.22;5072241;28;20024;-78
2023/06/29 11:59:03;;;;;;;;;;;;;;;26.33;72.89;99780.00;5073364;28;19926;-78
2023/06/29 12:01:31;;;;;;;;;;;;;;;26.33;72.69;99774.59;5067704;28;19920;-77
2023/06/29 12:03:56;;;;;;;;;;;;;;;26.36;73.54;99779.53;5068587;28;19965;-79
2023/06/29 12:06:21;;;;;;;;;;;;;;;26.34;73.50;99776.22;5073200;28;19920;-77
2023/06/29 12:08:50;;;;;;;;;;;;;;;26.32;72.43;99767.56;5072949;28;19957;-79
2023/06/29 12:11:16;;;;;;;;;;;;;;;26.24;72.44;99767.91;5072808;28;20261;-76
2023/06/29 12:13:48;;;;;;;;;;;;;;;26.25;72.91;99758.75;5073006;28;19923;-76
2023/06/29 12:16:15;;;;;;;;;;;;;;;26.26;73.54;99759.56;5071503;28;19920;-76
2023/06/29 12:18:41;;;;;;;;;;;;;;;26.34;73.45;99760.00;5073268;28;20279;-76
2023/06/29 12:21:06;;;;;;;;;;;;;;;26.45;73.65;99753.72;5072934;28;19917;-76
2023/06/29 12:23:31;;;;;;;;;;;;;;;26.46;72.12;99754.56;5072771;28;19917;-75
2023/06/29 12:25:57;;;;;;;;;;;;;;;26.27;72.78;99750.41;5071795;28;19924;-77
2023/06/29 12:28:23;;;;;;;;;;;;;;;26.26;73.25;99744.16;5072981;28;20003;-76
2023/06/29 12:30:48;;;;;;;;;;;;;;;26.25;73.20;99747.94;5071828;28;20038;-77
2023/06/29 12:33:14;;;;;;;;;;;;;;;26.14;73.68;99746.06;5070969;28;20396;-76
2023/06/29 12:35:39;;;;;;;;;;;;;;;26.06;74.17;99754.53;5071998;28;19916;-76